Hovedside
METAR-TAF:

METAR-TAF

Lufthavner :

Vientiane, Laos

breddegrad: 17-57N, lengdegrad: 102-34E, høyde over havet: 171 m

Gjeldene værobservasjon

Denne rapporten ble laget for 46 minutter siden, klokken 16:30 UTC
Vind 2 kt fra Vest
Temperatur 28°C
Luftfuktighet 84%
Trykk 1004 hPa
Sikt: 3000 m
Brutte skyer i en høyde av 4000 ft
dis

METAR: VLVT 231630Z 27002KT 3000 BR BKN040 28/25 Q1004 NOSIG

Tid: 00:16 (17:16 UTC)

Varsel

Denne rapporten ble laget for 6 timer og 16 minutter siden, klokken 11:00 UTC
Varsel gyldig fra 23. klokken 12 UTC til 24. klokken 12 UTC
Vind 10 kt fra Vest
Sikt: 4000 m
Spredte skyer i en høyde av 1600 ft
Få skyer i en høyde av 2700 ft, Bygeskyer.
Spredte skyer i en høyde av 10000 ft
torden

TAF: VLVT 231100Z 2312/2412 27010KT 4000 TS SCT016 FEW027CB SCT100

Værobservasjoner og værvarsel for over 4000 flyplasser (METAR- og TAF-rapporter).

Tilgjengelige stasjoner er representert av de røde og gule prikkene på kartet.

Hold musepekeren over prikken for å se navnet på stasjonen.

Klikk så for å se værobservasjoner og -varsler.

For å forandre kartet kan du klikke på den grønne knappen med svart kryss for å zoome inn, på den grønne knappen med strek for å zoome ut, eller på de grønne pilene for å se tilstøtende kart.


METAR-TAF: